Time;durP1;ratioP1;P1;durP2;ratioP2;P2;SDS_P1;SDS_P2;PMS_P1;PMS_P2;Temp;Humidity;BMP_temperature;BMP_pressure;BME280_temperature;BME280_humidity;BME280_pressure;Samples;Min_cycle;Max_cycle;Signal;HPM_P1;HPM_P2
2021/05/25 00:01:06;;;;;;;7.20;1.00;;;10.60;99.90;;;;;;5063890;28;20456;-82
2021/05/25 00:03:32;;;;;;;8.60;0.90;;;10.50;99.90;;;;;;5062280;28;20491;-81
2021/05/25 00:05:58;;;;;;;9.97;0.90;;;10.50;99.90;;;;;;5061549;28;20515;-82
2021/05/25 00:08:25;;;;;;;7.37;0.90;;;10.40;99.90;;;;;;5063248;28;20432;-82
2021/05/25 00:10:51;;;;;;;7.80;1.17;;;10.40;99.90;;;;;;5065852;28;20515;-82
2021/05/25 00:13:18;;;;;;;6.60;0.80;;;10.40;99.90;;;;;;5069173;28;20478;-83
2021/05/25 00:15:46;;;;;;;7.70;0.90;;;10.50;99.90;;;;;;5076030;28;20471;-80
2021/05/25 00:18:13;;;;;;;6.60;0.80;;;10.50;99.90;;;;;;5063839;28;20841;-82
2021/05/25 00:20:39;;;;;;;6.93;0.80;;;10.50;99.90;;;;;;5064203;28;20509;-81
2021/05/25 00:23:06;;;;;;;7.27;1.10;;;10.50;99.90;;;;;;5043238;28;20524;-82
2021/05/25 00:25:32;;;;;;;8.03;1.00;;;10.60;99.90;;;;;;5044129;28;20474;-82
2021/05/25 00:27:59;;;;;;;6.93;0.80;;;10.50;99.90;;;;;;5063711;28;20479;-82
2021/05/25 00:30:25;;;;;;;7.93;0.80;;;10.50;99.90;;;;;;5065786;28;20452;-83
2021/05/25 00:32:52;;;;;;;7.73;1.40;;;10.50;99.90;;;;;;5064198;28;20531;-80
2021/05/25 00:35:19;;;;;;;7.27;1.10;;;10.30;99.90;;;;;;5070694;28;20527;-84
2021/05/25 00:37:45;;;;;;;6.70;1.00;;;10.10;99.90;;;;;;5068190;28;20479;-80
2021/05/25 00:40:14;;;;;;;7.33;0.80;;;10.00;99.90;;;;;;5068014;28;20524;-81
2021/05/25 00:42:42;;;;;;;6.67;1.20;;;10.00;99.90;;;;;;5073494;28;20432;-83
2021/05/25 00:45:11;;;;;;;6.87;0.90;;;9.90;99.90;;;;;;5075965;28;20514;-81
2021/05/25 00:47:38;;;;;;;7.77;1.20;;;9.90;99.90;;;;;;5077545;28;20451;-82
2021/05/25 00:50:12;;;;;;;7.10;0.90;;;9.80;99.90;;;;;;5072533;28;20446;-82
2021/05/25 00:52:42;;;;;;;6.07;0.87;;;9.70;99.90;;;;;;5066573;28;20526;-80
2021/05/25 00:55:12;;;;;;;6.13;0.90;;;9.80;99.90;;;;;;5066574;28;20508;-81
2021/05/25 00:57:38;;;;;;;7.53;0.80;;;9.80;99.90;;;;;;5067029;28;20479;-81
2021/05/25 01:00:07;;;;;;;5.93;0.70;;;9.90;99.90;;;;;;5065027;28;20440;-82
2021/05/25 01:02:34;;;;;;;12.40;1.20;;;10.00;99.90;;;;;;5067489;28;20503;-82
2021/05/25 01:05:00;;;;;;;6.37;1.00;;;10.00;99.90;;;;;;5076581;28;20527;-82
2021/05/25 01:07:27;;;;;;;6.60;0.90;;;9.90;99.90;;;;;;5076946;28;20443;-81
2021/05/25 01:09:56;;;;;;;7.50;0.90;;;9.90;99.90;;;;;;5077069;28;20436;-83
2021/05/25 01:12:24;;;;;;;5.97;1.07;;;10.00;99.90;;;;;;5074445;28;20472;-82
2021/05/25 01:14:55;;;;;;;6.73;0.90;;;10.00;99.90;;;;;;5063743;28;20482;-82
2021/05/25 01:17:21;;;;;;;7.90;1.20;;;10.00;99.90;;;;;;5063778;28;20479;-82
2021/05/25 01:19:47;;;;;;;6.00;0.80;;;10.10;99.90;;;;;;5062673;28;20506;-82
2021/05/25 01:22:14;;;;;;;7.00;0.80;;;10.10;99.90;;;;;;5061666;28;20973;-83
2021/05/25 01:24:41;;;;;;;6.27;0.73;;;10.10;99.90;;;;;;5065645;28;20503;-84
2021/05/25 01:27:08;;;;;;;6.57;0.90;;;10.20;99.90;;;;;;5063372;28;20956;-83
2021/05/25 01:29:37;;;;;;;6.40;0.80;;;10.20;99.90;;;;;;5065184;28;20471;-83
2021/05/25 01:32:05;;;;;;;6.70;0.87;;;10.20;99.90;;;;;;5062108;28;20454;-82
2021/05/25 01:34:31;;;;;;;6.83;0.90;;;10.30;99.90;;;;;;5064102;28;20543;-82
2021/05/25 01:36:58;;;;;;;7.00;0.90;;;10.20;99.90;;;;;;5062284;28;20482;-82
2021/05/25 01:39:25;;;;;;;8.10;1.20;;;10.30;99.90;;;;;;5064444;28;20460;-82
2021/05/25 01:41:52;;;;;;;6.50;0.90;;;10.40;99.90;;;;;;5064477;28;20480;-81
2021/05/25 01:44:19;;;;;;;7.07;1.20;;;10.30;99.90;;;;;;5066058;28;20551;-83
2021/05/25 01:46:46;;;;;;;7.07;1.10;;;10.30;99.90;;;;;;5063840;28;20468;-82
2021/05/25 01:49:13;;;;;;;7.60;0.90;;;10.40;99.90;;;;;;5066381;28;20444;-82
2021/05/25 01:51:45;;;;;;;7.23;0.90;;;10.40;99.90;;;;;;5064125;28;20551;-84
2021/05/25 01:54:12;;;;;;;8.73;1.00;;;10.40;99.90;;;;;;5065263;28;20555;-83
2021/05/25 01:56:39;;;;;;;9.10;0.97;;;10.40;99.90;;;;;;5067770;28;20490;-82
2021/05/25 01:59:05;;;;;;;7.30;1.00;;;10.40;99.90;;;;;;5068992;28;20489;-83
2021/05/25 02:01:31;;;;;;;8.27;0.90;;;10.40;99.90;;;;;;5074201;28;20460;-82
2021/05/25 02:03:58;;;;;;;6.27;0.83;;;10.40;99.90;;;;;;5070119;28;20543;-82
2021/05/25 02:06:24;;;;;;;6.70;0.90;;;10.40;99.90;;;;;;5068681;28;20542;-82
2021/05/25 02:08:51;;;;;;;8.40;1.13;;;10.40;99.90;;;;;;5067723;28;20451;-82
2021/05/25 02:11:17;;;;;;;8.70;1.00;;;10.30;99.90;;;;;;5066781;28;20454;-82
2021/05/25 02:13:45;;;;;;;6.70;1.00;;;10.30;99.90;;;;;;5066551;28;20480;-83
2021/05/25 02:16:13;;;;;;;7.40;0.80;;;10.30;99.90;;;;;;5067666;28;20486;-80
2021/05/25 02:18:42;;;;;;;6.80;1.00;;;10.20;99.90;;;;;;5067087;28;20499;-82
2021/05/25 02:21:09;;;;;;;7.00;1.03;;;10.20;99.90;;;;;;5064939;28;20484;-81
2021/05/25 02:23:36;;;;;;;10.03;1.00;;;10.20;99.90;;;;;;5065797;28;20562;-83
2021/05/25 02:26:03;;;;;;;6.60;0.90;;;10.20;99.90;;;;;;5065753;28;20805;-82
2021/05/25 02:28:30;;;;;;;7.40;0.83;;;10.20;99.90;;;;;;5065781;28;20555;-82
2021/05/25 02:31:14;;;;;;;6.70;0.90;;;10.10;99.90;;;;;;5066430;28;20516;-83
2021/05/25 02:33:41;;;;;;;6.70;0.80;;;10.20;99.90;;;;;;5062543;28;20478;-83
2021/05/25 02:36:08;;;;;;;6.40;1.00;;;10.10;99.90;;;;;;5066023;28;20479;-83
2021/05/25 02:38:35;;;;;;;7.10;1.20;;;10.10;99.90;;;;;;5064297;28;20468;-83
2021/05/25 02:41:01;;;;;;;7.27;0.90;;;10.10;99.90;;;;;;5060850;28;20452;-83
2021/05/25 02:43:29;;;;;;;7.10;1.13;;;10.10;99.90;;;;;;5062631;28;20902;-82
2021/05/25 02:45:56;;;;;;;8.10;0.80;;;10.10;99.90;;;;;;5062370;28;20505;-82
2021/05/25 02:48:24;;;;;;;6.40;0.80;;;10.10;99.90;;;;;;5063388;28;20448;-82
2021/05/25 02:50:51;;;;;;;6.80;1.03;;;10.10;99.90;;;;;;5062114;28;20452;-83
2021/05/25 02:53:18;;;;;;;6.37;1.07;;;10.10;99.90;;;;;;5062761;28;20539;-82
2021/05/25 02:55:44;;;;;;;7.17;0.93;;;10.10;99.90;;;;;;5064014;28;20443;-81
2021/05/25 02:58:11;;;;;;;7.03;0.97;;;10.00;99.90;;;;;;5065002;28;20543;-81
2021/05/25 03:00:39;;;;;;;7.70;0.90;;;10.00;99.90;;;;;;5063841;28;20537;-81
2021/05/25 03:03:07;;;;;;;6.80;0.80;;;10.00;99.90;;;;;;5063248;28;20548;-81
2021/05/25 03:05:34;;;;;;;6.03;0.97;;;10.00;99.90;;;;;;5062688;28;20451;-82
2021/05/25 03:08:02;;;;;;;6.50;1.00;;;10.00;99.90;;;;;;5063027;28;20444;-82
2021/05/25 03:10:31;;;;;;;7.00;0.80;;;10.00;99.90;;;;;;5065637;28;20534;-84
2021/05/25 03:12:58;;;;;;;6.70;0.90;;;10.00;99.90;;;;;;5065114;28;20466;-83
2021/05/25 03:15:28;;;;;;;7.70;0.87;;;9.90;99.90;;;;;;5063926;28;20443;-82
2021/05/25 03:17:54;;;;;;;7.20;0.90;;;9.90;99.90;;;;;;5062221;28;20494;-83
2021/05/25 03:20:21;;;;;;;6.80;0.87;;;9.90;99.90;;;;;;5065026;28;20448;-82
2021/05/25 03:22:49;;;;;;;6.13;0.90;;;10.00;99.90;;;;;;5061773;28;20452;-83
2021/05/25 03:25:16;;;;;;;7.10;0.90;;;10.10;99.90;;;;;;5062007;28;20893;-82
2021/05/25 03:27:43;;;;;;;7.10;0.90;;;10.00;99.90;;;;;;5063876;28;20460;-82
2021/05/25 03:30:12;;;;;;;6.60;0.80;;;10.00;99.90;;;;;;5063596;28;20508;-82
2021/05/25 03:32:39;;;;;;;7.87;1.10;;;10.00;99.90;;;;;;5062534;28;20517;-81
2021/05/25 03:35:11;;;;;;;6.10;0.80;;;10.00;99.90;;;;;;5061265;28;20482;-83
2021/05/25 03:37:38;;;;;;;7.10;1.00;;;10.00;99.90;;;;;;5040328;28;20579;-83
2021/05/25 03:40:08;;;;;;;7.20;0.80;;;10.10;99.90;;;;;;5053361;28;20444;-82
2021/05/25 03:42:35;;;;;;;6.83;0.90;;;10.10;99.90;;;;;;5059654;28;20448;-82
2021/05/25 03:45:01;;;;;;;8.03;1.00;;;10.10;99.90;;;;;;5061391;28;21029;-82
2021/05/25 03:47:28;;;;;;;10.67;1.13;;;10.10;99.90;;;;;;5067582;28;20521;-79
2021/05/25 03:49:54;;;;;;;7.60;0.90;;;10.10;99.90;;;;;;5067430;28;20456;-81
2021/05/25 03:52:21;;;;;;;7.07;0.90;;;10.10;99.90;;;;;;5059474;28;20627;-82
2021/05/25 03:54:50;;;;;;;7.60;0.90;;;10.10;99.90;;;;;;5056958;28;20530;-83
2021/05/25 03:58:47;;;;;;;7.13;0.80;;;10.20;99.90;;;;;;5055991;28;20479;-82
2021/05/25 04:00:13;;;;;;;8.57;1.27;;;10.20;99.90;;;;;;5056225;28;20502;-83
2021/05/25 04:02:39;;;;;;;7.40;1.00;;;10.20;99.90;;;;;;5057663;28;20466;-83
2021/05/25 04:05:07;;;;;;;6.50;1.00;;;10.20;99.90;;;;;;5058218;28;20476;-82
2021/05/25 04:07:34;;;;;;;7.50;0.93;;;10.20;99.90;;;;;;5056753;28;20447;-81
2021/05/25 04:10:00;;;;;;;7.77;0.90;;;10.30;99.90;;;;;;5057834;28;20467;-84
2021/05/25 04:12:27;;;;;;;8.30;0.80;;;10.30;99.90;;;;;;5056417;28;20500;-82
2021/05/25 04:14:54;;;;;;;6.53;0.80;;;10.30;99.90;;;;;;5057376;28;20474;-85
2021/05/25 04:17:20;;;;;;;7.27;0.93;;;10.30;99.90;;;;;;5056736;28;20491;-85
2021/05/25 04:19:46;;;;;;;8.43;0.97;;;10.30;99.90;;;;;;5057906;28;20466;-84
2021/05/25 04:22:12;;;;;;;6.40;0.80;;;10.30;99.90;;;;;;5057786;28;20459;-83
2021/05/25 04:24:39;;;;;;;7.50;0.90;;;10.40;99.90;;;;;;5058403;28;20471;-83
2021/05/25 04:27:05;;;;;;;6.20;0.90;;;10.40;99.90;;;;;;5059181;28;20504;-84
2021/05/25 04:29:33;;;;;;;8.53;0.90;;;10.50;99.90;;;;;;5058800;28;20512;-84
2021/05/25 04:31:59;;;;;;;6.30;0.90;;;10.50;99.90;;;;;;5057511;28;20496;-85
2021/05/25 04:34:25;;;;;;;6.27;0.90;;;10.50;99.90;;;;;;5057159;28;20464;-84
2021/05/25 04:36:51;;;;;;;6.20;0.90;;;10.60;99.90;;;;;;5056838;28;20479;-81
2021/05/25 04:39:18;;;;;;;6.93;1.10;;;10.30;99.90;;;;;;5061615;28;20447;-81
2021/05/25 04:41:44;;;;;;;8.07;1.00;;;9.90;99.90;;;;;;5067131;28;20451;-82
2021/05/25 04:44:10;;;;;;;6.60;0.90;;;9.70;99.90;;;;;;5068856;28;20744;-82
2021/05/25 04:46:37;;;;;;;7.07;0.90;;;9.50;99.90;;;;;;5069351;28;20494;-83
2021/05/25 04:49:04;;;;;;;5.83;1.03;;;9.40;99.90;;;;;;5069321;28;20454;-81
2021/05/25 04:51:30;;;;;;;5.83;1.00;;;9.40;99.90;;;;;;5068971;28;20452;-82
2021/05/25 04:53:56;;;;;;;5.30;0.90;;;9.20;99.90;;;;;;5068901;28;20566;-80
2021/05/25 04:56:23;;;;;;;5.73;1.00;;;9.10;99.90;;;;;;5064260;28;21037;-81
2021/05/25 04:58:49;;;;;;;5.50;0.90;;;9.20;99.90;;;;;;5071180;28;20534;-81
2021/05/25 05:01:15;;;;;;;5.87;0.90;;;9.20;99.90;;;;;;5067235;28;20519;-80
2021/05/25 05:03:42;;;;;;;5.80;1.20;;;9.30;99.90;;;;;;5070315;28;20573;-82
2021/05/25 05:06:09;;;;;;;6.50;1.20;;;9.30;99.90;;;;;;5069540;28;20998;-81
2021/05/25 05:08:35;;;;;;;6.20;1.00;;;9.40;99.90;;;;;;5068711;28;20446;-81
2021/05/25 05:11:01;;;;;;;6.63;1.00;;;9.50;99.90;;;;;;5069998;28;20460;-82
2021/05/25 05:13:28;;;;;;;9.30;1.40;;;9.60;99.90;;;;;;5068998;28;20497;-79
2021/05/25 05:15:54;;;;;;;6.20;1.20;;;9.70;99.90;;;;;;5070387;28;20447;-81
2021/05/25 05:18:20;;;;;;;7.70;1.00;;;9.90;99.90;;;;;;5063439;28;20507;-80
2021/05/25 05:20:47;;;;;;;6.60;1.40;;;9.70;99.90;;;;;;5064428;28;20527;-80
2021/05/25 05:23:14;;;;;;;5.80;1.10;;;9.80;99.90;;;;;;5063869;28;20458;-79
2021/05/25 05:25:40;;;;;;;5.63;0.90;;;9.70;99.90;;;;;;5065907;28;20448;-81
2021/05/25 05:28:06;;;;;;;6.03;1.87;;;9.80;99.90;;;;;;5066446;28;21026;-79
2021/05/25 05:30:34;;;;;;;5.80;1.13;;;9.90;99.90;;;;;;5056921;28;20463;-79
2021/05/25 05:33:01;;;;;;;5.70;1.03;;;10.10;99.90;;;;;;5063266;28;20488;-80
2021/05/25 05:35:27;;;;;;;5.50;1.00;;;10.10;99.90;;;;;;5073117;28;20486;-80
2021/05/25 05:37:54;;;;;;;5.80;1.30;;;10.10;99.90;;;;;;5056929;28;20593;-79
2021/05/25 05:40:20;;;;;;;5.60;1.00;;;10.10;99.90;;;;;;5062307;28;20459;-80
2021/05/25 05:42:47;;;;;;;6.23;1.30;;;10.10;99.90;;;;;;5060946;28;20448;-80
2021/05/25 05:45:14;;;;;;;6.47;1.23;;;10.10;99.90;;;;;;5058130;28;20470;-78
2021/05/25 05:47:40;;;;;;;8.10;1.50;;;10.10;99.90;;;;;;5063684;28;20452;-79
2021/05/25 05:50:10;;;;;;;6.00;1.30;;;10.20;99.90;;;;;;5068104;28;20482;-79
2021/05/25 05:52:37;;;;;;;6.43;1.83;;;10.30;99.90;;;;;;5065751;28;20444;-80
2021/05/25 05:55:05;;;;;;;8.55;1.30;;;10.30;99.90;;;;;;5041343;22;1082846;-83
2021/05/25 05:57:32;;;;;;;6.33;1.23;;;10.50;99.90;;;;;;5038570;28;20283;-83
2021/05/25 05:59:58;;;;;;;6.03;1.13;;;10.60;99.90;;;;;;5038092;28;20453;-83
2021/05/25 06:02:25;;;;;;;5.30;1.00;;;10.70;99.90;;;;;;5034565;28;20557;-85
2021/05/25 06:04:51;;;;;;;6.23;1.43;;;10.90;99.90;;;;;;5026873;28;20480;-82
2021/05/25 06:07:21;;;;;;;5.53;1.03;;;11.10;99.90;;;;;;5033624;28;20445;-83
2021/05/25 06:09:48;;;;;;;6.80;1.20;;;11.10;99.90;;;;;;5034735;28;20487;-83
2021/05/25 06:12:17;;;;;;;6.17;1.20;;;11.10;99.90;;;;;;5035153;28;20455;-84
2021/05/25 06:14:43;;;;;;;6.10;1.40;;;11.10;99.90;;;;;;5036637;28;20523;-83
2021/05/25 06:17:10;;;;;;;5.87;1.00;;;11.10;99.90;;;;;;5034166;28;20481;-85
2021/05/25 06:19:36;;;;;;;5.57;1.10;;;11.10;99.90;;;;;;5036540;28;20449;-83
2021/05/25 06:22:02;;;;;;;5.83;1.10;;;11.10;99.90;;;;;;5035665;28;20457;-84
2021/05/25 06:24:29;;;;;;;6.67;1.00;;;11.10;99.90;;;;;;5034323;28;21255;-83
2021/05/25 06:26:57;;;;;;;7.27;1.47;;;11.00;99.90;;;;;;5038028;28;20884;-83
2021/05/25 06:29:24;;;;;;;7.10;2.00;;;10.70;99.90;;;;;;5038299;28;20464;-83
2021/05/25 06:31:58;;;;;;;6.27;1.17;;;10.40;99.90;;;;;;5038087;28;20457;-83
2021/05/25 06:34:25;;;;;;;7.90;1.60;;;10.20;99.90;;;;;;5040164;28;20467;-84
2021/05/25 06:36:51;;;;;;;5.27;1.10;;;10.10;99.90;;;;;;5038589;28;20607;-84
2021/05/25 06:39:18;;;;;;;5.97;1.40;;;9.90;99.90;;;;;;5040521;28;20455;-84
2021/05/25 06:41:44;;;;;;;5.90;1.50;;;9.80;99.90;;;;;;5040045;28;20459;-85
2021/05/25 06:44:10;;;;;;;7.53;1.60;;;9.70;99.90;;;;;;5040181;28;20536;-84
2021/05/25 06:46:37;;;;;;;5.63;1.30;;;9.80;99.90;;;;;;5037725;28;20449;-86
2021/05/25 06:49:06;;;;;;;7.00;1.70;;;9.80;99.90;;;;;;5039766;28;20630;-87
2021/05/25 06:51:32;;;;;;;5.63;1.73;;;9.90;99.90;;;;;;5032634;28;20458;-84
2021/05/25 06:53:58;;;;;;;7.13;1.60;;;9.90;99.90;;;;;;5040341;28;20455;-84
2021/05/25 06:56:25;;;;;;;7.50;1.60;;;9.90;99.90;;;;;;5036875;28;20516;-84
2021/05/25 06:58:51;;;;;;;8.40;1.50;;;9.80;99.90;;;;;;5037647;28;20444;-85
2021/05/25 07:01:18;;;;;;;5.80;1.53;;;9.90;99.90;;;;;;5034561;28;20460;-85
2021/05/25 07:03:45;;;;;;;5.03;1.20;;;10.30;99.90;;;;;;5055777;28;20487;-83
2021/05/25 07:06:11;;;;;;;5.70;1.40;;;10.40;99.90;;;;;;5048349;28;20467;-84
2021/05/25 07:08:37;;;;;;;7.17;1.30;;;10.40;99.90;;;;;;5048293;28;20457;-84
2021/05/25 07:11:04;;;;;;;6.17;1.20;;;10.50;99.90;;;;;;5047430;28;20478;-84
2021/05/25 07:13:30;;;;;;;6.60;1.17;;;10.50;99.90;;;;;;5045685;28;20503;-84
2021/05/25 07:15:56;;;;;;;6.83;1.10;;;10.50;99.90;;;;;;5046299;28;20552;-85
2021/05/25 07:18:23;;;;;;;5.90;1.37;;;10.60;99.90;;;;;;5048070;28;20483;-84
2021/05/25 07:20:50;;;;;;;5.90;1.03;;;11.00;99.90;;;;;;5047654;28;21040;-83
2021/05/25 07:23:16;;;;;;;5.57;0.90;;;11.20;99.90;;;;;;5040734;28;20532;-85
2021/05/25 07:25:43;;;;;;;6.10;1.00;;;11.20;99.90;;;;;;5041531;28;20465;-83
2021/05/25 07:28:09;;;;;;;5.30;0.70;;;11.00;99.90;;;;;;5041713;28;20477;-84
2021/05/25 07:30:36;;;;;;;6.20;1.07;;;10.80;99.90;;;;;;5041166;28;20457;-83
2021/05/25 07:33:02;;;;;;;6.77;0.90;;;10.70;99.90;;;;;;5040291;28;20453;-82
2021/05/25 07:35:29;;;;;;;5.37;0.80;;;10.60;99.90;;;;;;5042693;28;20484;-84
2021/05/25 07:37:57;;;;;;;6.07;0.80;;;10.50;99.90;;;;;;5045714;28;20526;-83
2021/05/25 07:40:23;;;;;;;5.27;0.83;;;10.60;99.90;;;;;;5043988;28;20464;-83
2021/05/25 07:42:50;;;;;;;5.20;0.87;;;10.70;99.90;;;;;;5044590;28;20517;-83
2021/05/25 07:45:16;;;;;;;4.83;0.77;;;10.80;99.90;;;;;;5042401;28;20480;-84
2021/05/25 07:47:43;;;;;;;5.10;0.80;;;11.20;99.90;;;;;;5038529;28;20445;-83
2021/05/25 07:50:14;;;;;;;6.03;0.80;;;11.30;99.90;;;;;;5037018;28;20449;-84
2021/05/25 07:52:41;;;;;;;5.47;0.87;;;11.40;99.90;;;;;;5038046;28;20453;-83
2021/05/25 07:55:10;;;;;;;5.13;0.90;;;11.30;99.90;;;;;;5039615;28;20480;-83
2021/05/25 07:57:37;;;;;;;6.00;0.90;;;11.30;99.90;;;;;;5042466;28;20483;-83
2021/05/25 08:00:04;;;;;;;5.77;0.97;;;11.30;99.90;;;;;;5041309;28;20507;-84
2021/05/25 08:02:31;;;;;;;5.37;0.97;;;11.30;99.90;;;;;;5049610;28;20942;-83
2021/05/25 08:04:57;;;;;;;7.10;1.33;;;11.10;99.90;;;;;;5049027;28;20571;-84
2021/05/25 08:07:23;;;;;;;6.07;1.33;;;10.90;99.90;;;;;;5049559;28;20517;-84
2021/05/25 08:09:50;;;;;;;5.60;1.40;;;10.90;99.90;;;;;;5048299;28;20437;-83
2021/05/25 08:12:17;;;;;;;5.77;1.00;;;10.90;99.90;;;;;;5044546;28;20453;-84
2021/05/25 08:14:44;;;;;;;5.90;1.30;;;10.70;99.90;;;;;;5039617;28;20473;-83
2021/05/25 08:17:18;;;;;;;6.53;1.60;;;10.60;99.90;;;;;;5045953;28;20508;-84
2021/05/25 08:19:48;;;;;;;6.57;2.00;;;10.60;99.90;;;;;;5046202;28;20457;-84
2021/05/25 08:22:14;;;;;;;7.40;1.83;;;10.80;99.90;;;;;;5045270;28;20495;-84
2021/05/25 08:24:41;;;;;;;6.17;1.80;;;11.10;99.90;;;;;;5043317;28;20564;-85
2021/05/25 08:27:07;;;;;;;7.50;1.90;;;11.30;99.90;;;;;;5048279;28;20460;-83
2021/05/25 08:29:35;;;;;;;6.77;2.27;;;11.50;99.90;;;;;;5054188;28;20471;-85
2021/05/25 08:32:01;;;;;;;6.47;1.97;;;11.90;99.90;;;;;;5038472;28;20477;-85
2021/05/25 08:34:27;;;;;;;7.30;2.20;;;12.10;99.90;;;;;;5048307;28;20537;-84
2021/05/25 08:36:54;;;;;;;6.50;2.00;;;12.10;99.90;;;;;;5050610;28;20536;-86
2021/05/25 08:39:20;;;;;;;10.47;2.50;;;12.20;99.90;;;;;;5041672;28;20543;-86
2021/05/25 08:41:47;;;;;;;7.47;2.20;;;12.40;99.90;;;;;;5049367;28;20452;-86
2021/05/25 08:44:13;;;;;;;8.10;2.27;;;12.70;99.90;;;;;;5048995;28;20476;-87
2021/05/25 08:46:47;;;;;;;7.40;2.30;;;12.90;99.90;;;;;;5049682;28;20468;-87
2021/05/25 08:49:14;;;;;;;10.30;2.63;;;13.00;99.90;;;;;;5046843;28;20461;-87
2021/05/25 08:51:40;;;;;;;7.40;2.20;;;13.20;99.90;;;;;;5040816;28;20461;-86
2021/05/25 08:54:08;;;;;;;7.43;2.20;;;13.40;99.90;;;;;;5044752;28;20559;-86
2021/05/25 08:56:35;;;;;;;10.00;2.73;;;13.50;99.90;;;;;;5041548;28;20618;-87
2021/05/25 08:59:01;;;;;;;7.57;2.40;;;13.30;99.90;;;;;;5041363;28;20448;-86
2021/05/25 09:01:28;;;;;;;9.27;3.07;;;13.30;99.90;;;;;;5041127;28;20460;-87
2021/05/25 09:04:01;;;;;;;7.90;2.63;;;13.20;99.90;;;;;;5042207;28;20449;-87
2021/05/25 09:06:41;;;;;;;9.03;2.77;;;12.80;99.90;;;;;;5043843;28;20452;-88
2021/05/25 09:09:10;;;;;;;7.30;2.30;;;12.60;99.90;;;;;;5045547;28;20460;-88
2021/05/25 09:12:00;;;;;;;7.60;2.63;;;12.50;99.90;;;;;;5043726;28;20457;-86
2021/05/25 09:14:27;;;;;;;11.10;2.83;;;12.60;99.90;;;;;;5047556;28;20476;-87
2021/05/25 09:17:15;;;;;;;8.33;2.03;;;12.40;99.90;;;;;;5041580;28;20484;-87
2021/05/25 09:19:48;;;;;;;9.40;2.77;;;12.60;99.90;;;;;;5051258;28;20819;-86
2021/05/25 09:22:29;;;;;;;8.53;2.57;;;13.00;99.90;;;;;;5040589;28;20456;-87
2021/05/25 09:24:57;;;;;;;7.17;1.73;;;13.60;99.90;;;;;;5039466;28;20547;-87
2021/05/25 09:27:32;;;;;;;14.03;2.40;;;14.40;99.90;;;;;;5042517;28;20436;-87
2021/05/25 09:30:26;;;;;;;9.63;2.10;;;14.80;99.90;;;;;;5043511;28;20462;-88
2021/05/25 09:32:57;;;;;;;12.20;2.43;;;15.50;99.90;;;;;;5043232;28;20445;-88
2021/05/25 09:35:26;;;;;;;11.30;2.20;;;16.10;99.90;;;;;;5041855;28;20572;-87
2021/05/25 09:37:55;;;;;;;13.87;3.57;;;16.20;99.90;;;;;;5043523;28;20485;-86
2021/05/25 09:40:25;;;;;;;14.77;2.40;;;17.20;99.90;;;;;;5040868;28;20494;-87
2021/05/25 09:42:55;;;;;;;11.70;2.10;;;17.70;99.90;;;;;;5036908;28;20443;-87
2021/05/25 09:45:22;;;;;;;12.67;1.97;;;17.40;99.90;;;;;;5037205;28;20472;-87
2021/05/25 09:47:52;;;;;;;10.03;2.17;;;16.90;99.90;;;;;;5037989;28;20457;-88
2021/05/25 09:50:19;;;;;;;9.53;2.23;;;16.00;99.90;;;;;;5037302;28;20541;-87
2021/05/25 09:53:08;;;;;;;9.20;2.20;;;15.50;99.90;;;;;;5035070;28;20893;-88
2021/05/25 09:55:48;;;;;;;13.80;4.50;;;15.40;99.90;;;;;;5037754;28;20477;-87
2021/05/25 09:58:15;;;;;;;487.87;452.80;;;17.60;99.90;;;;;;5037061;28;20492;-87
2021/05/25 10:00:44;;;;;;;540.90;488.93;;;19.20;99.90;;;;;;5037034;28;20559;-88
2021/05/25 10:03:16;;;;;;;4.77;1.70;;;20.60;99.90;;;;;;5036760;28;20503;-88
2021/05/25 10:05:45;;;;;;;240.67;224.63;;;20.70;99.90;;;;;;5037520;28;20555;-86
2021/05/25 10:08:13;;;;;;;337.13;313.97;;;20.00;99.90;;;;;;5039712;28;20836;-84
2021/05/25 10:10:44;;;;;;;249.63;231.20;;;18.60;99.90;;;;;;5039091;28;20528;-85
2021/05/25 10:13:11;;;;;;;1999.90;999.90;;;17.30;99.90;;;;;;5039518;28;20456;-85
2021/05/25 10:15:38;;;;;;;1999.90;999.90;;;16.50;99.90;;;;;;5040002;28;20468;-83
2021/05/25 10:21:04;;;;;;;1999.90;999.90;;;15.90;99.90;;;;;;5050760;28;20433;-83
2021/05/25 10:23:34;;;;;;;1398.43;725.00;;;15.30;99.90;;;;;;5045006;28;20448;-81
2021/05/25 10:26:08;;;;;;;540.40;498.43;;;15.00;99.90;;;;;;5046598;28;21019;-81
2021/05/25 10:28:40;;;;;;;859.90;802.60;;;14.80;99.90;;;;;;5046427;28;20505;-84
2021/05/25 10:31:27;;;;;;;38.20;16.87;;;14.40;99.90;;;;;;5045275;28;20972;-82
2021/05/25 10:34:15;;;;;;;62.23;51.80;;;14.50;99.90;;;;;;5047116;28;20522;-83
2021/05/25 10:36:43;;;;;;;50.73;45.97;;;15.70;99.90;;;;;;5044701;28;20461;-83
2021/05/25 10:39:28;;;;;;;74.20;66.67;;;17.20;99.90;;;;;;5045083;28;20449;-83
2021/05/25 10:42:27;;;;;;;104.40;96.20;;;17.80;99.90;;;;;;5040952;28;20452;-86
2021/05/25 10:44:55;;;;;;;56.43;51.27;;;17.20;99.90;;;;;;5037283;28;20469;-85
2021/05/25 10:47:24;;;;;;;51.30;40.90;;;15.90;99.90;;;;;;5041008;28;20517;-85
2021/05/25 10:49:57;;;;;;;63.57;57.73;;;14.50;99.90;;;;;;5028179;28;20510;-85
2021/05/25 10:52:23;;;;;;;21.77;3.60;;;13.40;99.90;;;;;;5043202;28;20481;-86
2021/05/25 10:54:57;;;;;;;32.93;25.43;;;12.70;99.90;;;;;;5041403;28;20964;-85
2021/05/25 10:57:40;;;;;;;26.83;15.60;;;12.10;99.90;;;;;;5041242;28;21062;-85
2021/05/25 11:00:10;;;;;;;16.80;2.20;;;11.60;99.90;;;;;;5039856;28;20836;-85
2021/05/25 11:02:59;;;;;;;13.70;2.20;;;11.40;99.90;;;;;;5021562;28;20471;-85
2021/05/25 11:05:44;;;;;;;12.13;2.30;;;11.40;99.90;;;;;;5039731;28;20496;-86
2021/05/25 11:08:37;;;;;;;13.67;3.23;;;11.50;99.90;;;;;;5037864;28;20543;-85
2021/05/25 11:11:15;;;;;;;14.13;3.50;;;11.70;99.90;;;;;;5045852;28;20453;-85
2021/05/25 11:13:49;;;;;;;10.90;3.60;;;11.70;99.90;;;;;;5030046;28;20451;-85
2021/05/25 11:30:04;;;;;;;13.93;4.70;;;12.50;99.90;;;;;;4976361;28;20467;-85
2021/05/25 11:32:43;;;;;;;12.60;5.10;;;12.70;99.90;;;;;;5040317;28;20823;-84
2021/05/25 11:35:11;;;;;;;14.53;6.07;;;12.70;99.90;;;;;;5039094;28;20976;-85
2021/05/25 11:37:40;;;;;;;18.50;7.57;;;12.70;99.90;;;;;;5038707;28;20576;-84
2021/05/25 11:40:09;;;;;;;12.30;3.17;;;12.10;99.90;;;;;;5039055;28;20441;-83
2021/05/25 11:42:35;;;;;;;11.07;2.53;;;11.70;99.90;;;;;;5037523;28;21031;-84
2021/05/25 11:45:06;;;;;;;9.40;1.93;;;11.70;99.90;;;;;;5037580;28;20465;-83
2021/05/25 11:47:32;;;;;;;10.03;1.83;;;11.50;99.90;;;;;;5036726;28;20448;-85
2021/05/25 11:49:58;;;;;;;13.63;2.10;;;11.30;99.90;;;;;;5017667;28;20445;-84
2021/05/25 11:52:27;;;;;;;8.47;1.80;;;11.00;99.90;;;;;;5033916;28;20441;-85
2021/05/25 11:54:56;;;;;;;12.17;2.80;;;11.00;99.90;;;;;;5034462;28;20543;-85
2021/05/25 11:57:34;;;;;;;8.87;2.00;;;10.90;99.90;;;;;;5058964;23;20591;-82
2021/05/25 12:00:04;;;;;;;10.53;2.30;;;10.90;99.90;;;;;;5050420;28;20883;-83
2021/05/25 12:02:32;;;;;;;8.57;2.23;;;11.00;99.90;;;;;;5054494;28;20458;-86
2021/05/25 12:05:11;;;;;;;10.10;2.67;;;11.60;99.90;;;;;;5057962;28;20541;-84
2021/05/25 12:07:40;;;;;;;11.20;4.07;;;12.40;99.90;;;;;;5055887;28;20555;-84
2021/05/25 12:10:09;;;;;;;12.37;4.80;;;13.10;99.90;;;;;;5057893;28;20471;-85
2021/05/25 12:12:39;;;;;;;16.07;4.33;;;14.30;99.90;;;;;;5057216;28;20471;-84
2021/05/25 12:15:17;;;;;;;14.80;6.10;;;16.30;99.90;;;;;;5053773;28;20456;-85
2021/05/25 12:17:46;;;;;;;12.90;3.50;;;16.90;99.90;;;;;;5055582;28;20483;-84
2021/05/25 12:20:17;;;;;;;28.53;21.97;;;17.20;99.90;;;;;;5053414;28;20976;-84
2021/05/25 12:22:45;;;;;;;82.37;71.43;;;19.00;99.90;;;;;;5053234;28;20514;-84
2021/05/25 12:25:19;;;;;;;344.40;319.37;;;20.10;99.90;;;;;;5062618;28;20452;-84
2021/05/25 12:27:46;;;;;;;1459.63;740.93;;;21.20;99.90;;;;;;5052771;28;20492;-83
2021/05/25 12:30:16;;;;;;;246.27;221.67;;;22.60;99.90;;;;;;5050837;28;20589;-82
2021/05/25 12:32:43;;;;;;;101.20;88.97;;;23.50;99.90;;;;;;5034150;28;20456;-84
2021/05/25 12:35:11;;;;;;;58.97;49.27;;;24.30;99.90;;;;;;5052064;28;20470;-83
2021/05/25 12:37:37;;;;;;;5.60;2.30;;;25.40;99.90;;;;;;5053887;28;20491;-83
2021/05/25 12:40:06;;;;;;;6.67;2.00;;;25.20;99.90;;;;;;5056113;28;20452;-84
2021/05/25 12:42:35;;;;;;;6.70;2.37;;;26.60;99.90;;;;;;5055531;28;20918;-83
2021/05/25 12:45:09;;;;;;;5.47;2.57;;;24.70;99.90;;;;;;5054708;28;20451;-83
2021/05/25 12:47:56;;;;;;;5.87;2.60;;;22.70;99.90;;;;;;5058767;28;21003;-83
2021/05/25 12:50:28;;;;;;;1999.90;999.90;;;20.20;99.90;;;;;;5065631;28;20451;-83
2021/05/25 12:53:05;;;;;;;989.70;880.10;;;17.00;99.90;;;;;;5055040;28;20555;-86
2021/05/25 12:55:33;;;;;;;701.67;659.13;;;15.10;99.90;;;;;;5052856;28;20483;-85
2021/05/25 12:57:59;;;;;;;591.07;553.77;;;13.80;99.90;;;;;;5052158;28;20498;-86
2021/05/25 13:00:28;;;;;;;156.77;147.07;;;13.10;99.90;;;;;;5055572;28;20589;-83
2021/05/25 13:02:56;;;;;;;29.80;12.77;;;12.20;99.90;;;;;;5053412;28;20979;-84
2021/05/25 13:05:25;;;;;;;44.77;40.60;;;11.40;99.90;;;;;;5053973;28;20484;-84
2021/05/25 13:07:58;;;;;;;16.40;3.33;;;11.00;99.90;;;;;;5052958;28;20487;-85